createdAt,value
2022-12-15T00:00:24.679Z,72.29
2022-12-15T00:03:31.404Z,72.49
2022-12-15T00:06:19.792Z,72.78
2022-12-15T00:09:09.821Z,72.94
2022-12-15T00:12:00.375Z,73.13
2022-12-15T00:14:47.524Z,72.93
2022-12-15T00:17:34.560Z,72.89
2022-12-15T00:20:22.138Z,72.93
2022-12-15T00:23:08.738Z,73.20
2022-12-15T00:25:55.382Z,73.38
2022-12-15T00:28:41.951Z,73.52
2022-12-15T00:31:28.614Z,73.70
2022-12-15T00:34:14.855Z,73.86
2022-12-15T00:37:01.626Z,74.00
2022-12-15T00:39:29.668Z,73.95
2022-12-15T00:41:57.807Z,73.81
2022-12-15T00:44:25.690Z,73.63
2022-12-15T00:46:56.646Z,73.56
2022-12-15T00:49:45.196Z,73.53
2022-12-15T00:52:33.419Z,73.42
2022-12-15T00:55:20.247Z,73.65
2022-12-15T00:58:06.925Z,73.95
2022-12-15T01:00:53.234Z,74.22
2022-12-15T01:03:42.198Z,74.22
2022-12-15T01:06:35.374Z,74.33
2022-12-15T01:09:25.058Z,74.13
2022-12-15T01:12:11.929Z,74.18
2022-12-15T01:14:58.283Z,74.14
2022-12-15T01:17:44.873Z,74.12
2022-12-15T01:20:18.064Z,74.26
2022-12-15T01:22:53.051Z,74.52
2022-12-15T01:25:24.315Z,74.64
2022-12-15T01:27:52.788Z,74.68
2022-12-15T01:30:26.785Z,74.55
2022-12-15T01:32:54.777Z,74.75
2022-12-15T01:35:22.886Z,74.67
2022-12-15T01:37:50.861Z,74.61
2022-12-15T01:40:39.366Z,74.53
2022-12-15T01:43:14.165Z,74.64
2022-12-15T01:45:52.498Z,74.79
2022-12-15T01:48:29.803Z,74.97
2022-12-15T01:51:06.723Z,75.17
2022-12-15T01:53:57.338Z,75.19
2022-12-15T01:56:30.072Z,75.29
2022-12-15T01:59:05.118Z,75.37
2022-12-15T02:01:33.181Z,75.34
2022-12-15T02:04:01.115Z,75.42
2022-12-15T02:06:29.954Z,75.31
2022-12-15T02:09:00.831Z,75.02
2022-12-15T02:12:07.047Z,75.00
2022-12-15T02:14:46.920Z,75.07
2022-12-15T02:17:21.009Z,75.04
2022-12-15T02:20:23.311Z,75.20
2022-12-15T02:23:09.574Z,75.42
2022-12-15T02:25:58.757Z,75.53
2022-12-15T02:28:52.205Z,75.64
2022-12-15T02:31:51.445Z,75.61
2022-12-15T02:34:27.702Z,75.39
2022-12-15T02:37:08.948Z,75.14
2022-12-15T02:39:37.168Z,75.04
2022-12-15T02:42:05.119Z,74.93
2022-12-15T02:45:05.628Z,74.87
2022-12-15T02:48:12.209Z,74.97
2022-12-15T02:50:51.020Z,75.26
2022-12-15T02:53:28.790Z,75.44
2022-12-15T02:56:18.370Z,75.46
2022-12-15T02:59:01.863Z,75.31
2022-12-15T03:01:36.861Z,75.05
2022-12-15T03:04:09.263Z,75.01
2022-12-15T03:06:37.795Z,74.73
2022-12-15T03:09:05.989Z,74.63
2022-12-15T03:11:34.573Z,75.04
2022-12-15T03:14:02.702Z,75.27
2022-12-15T03:16:30.627Z,75.56
2022-12-15T03:18:58.530Z,75.50
2022-12-15T03:21:27.941Z,75.47
2022-12-15T03:23:56.110Z,75.49
2022-12-15T03:26:24.618Z,75.46
2022-12-15T03:28:52.993Z,75.51
2022-12-15T03:31:21.000Z,75.41
2022-12-15T03:33:48.890Z,75.52
2022-12-15T03:36:16.706Z,75.74
2022-12-15T03:38:44.689Z,75.90
2022-12-15T03:41:12.564Z,75.80
2022-12-15T03:43:40.575Z,75.67
2022-12-15T03:46:08.814Z,75.44
2022-12-15T03:48:37.109Z,75.25
2022-12-15T03:51:04.987Z,75.12
2022-12-15T03:53:33.046Z,75.35
2022-12-15T03:56:01.376Z,75.43
2022-12-15T03:58:30.220Z,75.41
2022-12-15T04:00:58.798Z,75.52
2022-12-15T04:03:26.990Z,75.48
2022-12-15T04:05:55.274Z,75.26
2022-12-15T04:08:26.724Z,75.13
2022-12-15T04:10:55.009Z,74.98
2022-12-15T04:13:22.912Z,74.92
2022-12-15T04:15:50.826Z,74.81
2022-12-15T04:18:18.800Z,74.76
2022-12-15T04:20:46.991Z,75.00
2022-12-15T04:23:18.315Z,75.00
2022-12-15T04:26:04.898Z,74.88
2022-12-15T04:28:51.742Z,74.74
2022-12-15T04:31:56.509Z,74.55
2022-12-15T04:34:43.151Z,74.31
2022-12-15T04:37:32.343Z,74.32
2022-12-15T04:40:18.773Z,74.23
2022-12-15T04:43:06.939Z,74.43
2022-12-15T04:45:53.456Z,74.71
2022-12-15T04:48:40.052Z,74.83
2022-12-15T04:51:26.132Z,74.60
2022-12-15T04:54:12.222Z,74.24
2022-12-15T04:56:58.390Z,74.02
2022-12-15T04:59:45.329Z,73.97
2022-12-15T05:02:31.984Z,73.89
2022-12-15T05:05:18.820Z,74.12
2022-12-15T05:08:05.568Z,74.28
2022-12-15T05:10:52.290Z,74.42
2022-12-15T05:13:38.649Z,74.28
2022-12-15T05:16:25.416Z,74.11
2022-12-15T05:19:11.785Z,74.30
2022-12-15T05:21:58.289Z,74.94
2022-12-15T05:24:45.600Z,75.55
2022-12-15T05:27:31.801Z,75.19
2022-12-15T05:30:18.276Z,75.38
2022-12-15T05:32:46.604Z,76.73
2022-12-15T05:35:18.104Z,78.99
2022-12-15T05:37:46.078Z,82.91
2022-12-15T05:40:13.987Z,82.66
2022-12-15T05:42:41.989Z,80.74
2022-12-15T05:45:10.476Z,78.95
2022-12-15T05:47:38.512Z,77.67
2022-12-15T05:50:07.065Z,76.64
2022-12-15T05:52:35.631Z,76.22
2022-12-15T05:55:03.939Z,76.05
2022-12-15T05:57:32.248Z,76.03
2022-12-15T06:00:00.345Z,76.09
2022-12-15T06:02:31.192Z,76.30
2022-12-15T06:04:59.953Z,76.53
2022-12-15T06:07:27.938Z,76.67
2022-12-15T06:09:55.798Z,76.62
2022-12-15T06:12:23.949Z,76.47
2022-12-15T06:14:52.278Z,76.26
2022-12-15T06:17:20.248Z,76.16
2022-12-15T06:19:48.232Z,76.13
2022-12-15T06:22:16.261Z,76.37
2022-12-15T06:24:44.290Z,76.32
2022-12-15T06:27:12.577Z,76.43
2022-12-15T06:29:40.500Z,76.39
2022-12-15T06:32:08.510Z,76.42
2022-12-15T06:34:37.279Z,76.30
2022-12-15T06:37:05.343Z,76.17
2022-12-15T06:39:33.244Z,76.24
2022-12-15T06:42:01.416Z,76.14
2022-12-15T06:44:29.260Z,76.31
2022-12-15T06:46:57.317Z,76.51
2022-12-15T06:49:25.301Z,76.63
2022-12-15T06:51:53.202Z,76.80
2022-12-15T06:54:21.154Z,77.00
2022-12-15T06:56:49.916Z,76.90
2022-12-15T06:59:18.116Z,76.87
2022-12-15T07:01:46.329Z,76.80
2022-12-15T07:04:15.251Z,76.81
2022-12-15T07:06:43.389Z,76.80
2022-12-15T07:09:16.357Z,77.25
2022-12-15T07:11:45.405Z,77.64
2022-12-15T07:14:13.419Z,77.81
2022-12-15T07:16:41.439Z,77.91
2022-12-15T07:19:13.646Z,77.89
2022-12-15T07:21:41.686Z,77.77
2022-12-15T07:24:12.014Z,77.31
2022-12-15T07:26:41.315Z,77.04
2022-12-15T07:29:11.806Z,76.96
2022-12-15T07:31:40.169Z,77.08
2022-12-15T07:34:08.124Z,77.20
2022-12-15T07:36:36.181Z,77.42
2022-12-15T07:39:05.407Z,77.57
2022-12-15T07:41:33.724Z,77.79
2022-12-15T07:44:02.545Z,77.86
2022-12-15T07:46:30.737Z,77.74
2022-12-15T07:48:58.945Z,77.54
2022-12-15T07:51:27.807Z,77.49
2022-12-15T07:53:56.229Z,77.35
2022-12-15T07:56:24.581Z,77.31
2022-12-15T07:58:52.848Z,77.59
2022-12-15T08:01:20.826Z,77.95
2022-12-15T08:03:49.308Z,78.10
2022-12-15T08:06:17.696Z,78.11
2022-12-15T08:08:50.802Z,78.19
2022-12-15T08:11:22.220Z,78.21
2022-12-15T08:14:10.669Z,78.11
2022-12-15T08:16:39.834Z,78.03
2022-12-15T08:19:13.795Z,77.91
2022-12-15T08:21:43.331Z,77.84
2022-12-15T08:24:12.154Z,78.00
2022-12-15T08:26:41.897Z,78.15
2022-12-15T08:29:49.579Z,78.19
2022-12-15T08:32:06.032Z,78.33
2022-12-15T08:34:34.256Z,78.40
2022-12-15T08:37:02.214Z,78.25
2022-12-15T08:39:30.420Z,78.10
2022-12-15T08:41:58.293Z,77.98
2022-12-15T08:44:26.236Z,77.88
2022-12-15T08:46:54.433Z,77.71
2022-12-15T08:49:22.766Z,77.94
2022-12-15T08:51:51.495Z,78.14
2022-12-15T08:54:20.570Z,78.09
2022-12-15T08:56:49.054Z,77.94
2022-12-15T08:59:17.271Z,77.92
2022-12-15T09:01:45.315Z,77.87
2022-12-15T09:04:13.777Z,77.74
2022-12-15T09:06:42.084Z,77.57
2022-12-15T09:09:12.394Z,77.50
2022-12-15T09:11:41.037Z,77.30
2022-12-15T09:14:09.081Z,77.24
2022-12-15T09:16:37.179Z,77.56
2022-12-15T09:19:05.626Z,77.71
2022-12-15T09:21:34.443Z,77.68
2022-12-15T09:24:03.984Z,77.68
2022-12-15T09:26:34.348Z,77.78
2022-12-15T09:29:02.435Z,77.58
2022-12-15T09:31:37.572Z,77.50
2022-12-15T09:34:05.652Z,77.60
2022-12-15T09:36:33.789Z,77.61
2022-12-15T09:39:02.805Z,77.59
2022-12-15T09:41:33.287Z,77.71
2022-12-15T09:44:14.987Z,77.72
2022-12-15T09:47:23.594Z,77.73
2022-12-15T09:49:56.156Z,77.69
2022-12-15T09:52:30.352Z,77.40
2022-12-15T09:54:59.429Z,77.27
2022-12-15T09:57:44.741Z,77.17
2022-12-15T10:00:25.732Z,77.15
2022-12-15T10:03:03.854Z,77.48
2022-12-15T10:06:06.898Z,77.69
2022-12-15T10:08:31.130Z,77.88
2022-12-15T10:11:02.160Z,77.89
2022-12-15T10:13:47.537Z,77.89
2022-12-15T10:16:28.081Z,77.78
2022-12-15T10:19:14.326Z,77.60
2022-12-15T10:21:42.634Z,77.53
2022-12-15T10:24:44.508Z,77.55
2022-12-15T10:27:17.200Z,77.43
2022-12-15T10:29:52.359Z,77.33
2022-12-15T10:32:43.074Z,77.23
2022-12-15T10:35:32.726Z,76.90
2022-12-15T10:38:05.054Z,76.53
2022-12-15T10:40:50.590Z,75.93
2022-12-15T10:43:31.741Z,75.95
2022-12-15T10:46:01.480Z,75.91
2022-12-15T10:48:29.733Z,75.90
2022-12-15T10:51:37.346Z,76.11
2022-12-15T10:54:11.602Z,76.03
2022-12-15T10:57:27.817Z,76.12
2022-12-15T11:00:22.783Z,75.97
2022-12-15T11:02:50.844Z,75.86
2022-12-15T11:05:19.925Z,75.53
2022-12-15T11:07:50.585Z,75.17
2022-12-15T11:10:26.327Z,75.10
2022-12-15T11:13:14.422Z,75.04
2022-12-15T11:15:45.722Z,75.11
2022-12-15T11:18:53.343Z,75.14
2022-12-15T11:21:36.971Z,74.91
2022-12-15T11:24:16.674Z,74.78
2022-12-15T11:27:28.615Z,74.59
2022-12-15T11:30:16.323Z,74.45
2022-12-15T11:33:04.757Z,74.32
2022-12-15T11:35:51.547Z,74.23
2022-12-15T11:38:50.013Z,74.24
2022-12-15T11:41:27.987Z,74.48
2022-12-15T11:44:17.957Z,78.16
2022-12-15T11:47:11.162Z,77.37
2022-12-15T11:50:23.745Z,75.71
2022-12-15T11:53:11.221Z,75.38
2022-12-15T11:56:18.138Z,75.34
2022-12-15T11:59:23.794Z,75.63
2022-12-15T12:02:02.979Z,75.80
2022-12-15T12:04:31.344Z,75.91
2022-12-15T12:07:21.068Z,75.71
2022-12-15T12:10:21.929Z,75.86
2022-12-15T12:13:12.355Z,76.12
2022-12-15T12:15:43.558Z,76.29
2022-12-15T12:18:36.765Z,76.36
2022-12-15T12:21:14.507Z,76.39
2022-12-15T12:24:03.901Z,76.46
2022-12-15T12:26:45.241Z,76.54
2022-12-15T12:29:26.117Z,76.90
2022-12-15T12:31:56.446Z,77.10
2022-12-15T12:34:40.846Z,77.17
2022-12-15T12:37:27.992Z,77.13
2022-12-15T12:40:03.456Z,77.05
2022-12-15T12:42:40.607Z,76.91
2022-12-15T12:45:13.877Z,77.14
2022-12-15T12:47:50.087Z,77.08
2022-12-15T12:50:24.381Z,77.22
2022-12-15T12:53:03.440Z,77.34
2022-12-15T12:55:40.256Z,77.49
2022-12-15T12:58:34.296Z,77.64
2022-12-15T13:01:11.228Z,77.64
2022-12-15T13:03:40.471Z,77.46
2022-12-15T13:06:40.867Z,77.21
2022-12-15T13:09:17.488Z,77.28
2022-12-15T13:11:49.108Z,77.35
2022-12-15T13:14:30.691Z,77.57
2022-12-15T13:17:28.526Z,77.67
2022-12-15T13:19:56.467Z,77.82
2022-12-15T13:22:24.396Z,77.90
2022-12-15T13:24:52.395Z,77.99
2022-12-15T13:27:20.454Z,78.12
2022-12-15T13:30:09.935Z,78.12
2022-12-15T13:32:41.630Z,78.12
2022-12-15T13:35:13.198Z,78.13
2022-12-15T13:37:49.044Z,78.39
2022-12-15T13:40:24.215Z,78.47
2022-12-15T13:43:05.520Z,78.48
2022-12-15T13:45:50.707Z,78.43
2022-12-15T13:48:36.288Z,78.30
2022-12-15T13:51:25.739Z,78.20
2022-12-15T13:54:09.944Z,77.86
2022-12-15T13:56:46.561Z,77.60
2022-12-15T13:59:34.096Z,77.68
2022-12-15T14:02:02.343Z,77.78
2022-12-15T14:04:30.362Z,77.89
2022-12-15T14:07:02.014Z,78.25
2022-12-15T14:09:35.886Z,78.46
2022-12-15T14:12:08.076Z,78.12
2022-12-15T14:14:42.968Z,77.59
2022-12-15T14:17:15.377Z,77.35
2022-12-15T14:19:51.073Z,77.13
2022-12-15T14:22:28.261Z,77.06
2022-12-15T14:25:21.112Z,77.11
2022-12-15T14:27:51.023Z,77.24
2022-12-15T14:30:25.607Z,77.31
2022-12-15T14:33:01.673Z,77.31
2022-12-15T14:35:36.879Z,77.25
2022-12-15T14:38:09.162Z,77.18
2022-12-15T14:40:39.908Z,77.27
2022-12-15T14:43:11.828Z,77.40
2022-12-15T14:45:40.070Z,77.57
2022-12-15T14:51:02.588Z,77.84
2022-12-15T14:53:36.615Z,77.96
2022-12-15T14:56:27.568Z,77.93
2022-12-15T14:59:06.318Z,77.91
2022-12-15T15:01:40.881Z,77.91
2022-12-15T15:04:29.380Z,78.03
2022-12-15T15:07:01.190Z,78.25
2022-12-15T15:09:38.353Z,78.54
2022-12-15T15:12:45.771Z,78.61
2022-12-15T15:15:24.704Z,78.78
2022-12-15T15:18:00.417Z,78.73
2022-12-15T15:20:36.548Z,78.68
2022-12-15T15:23:07.382Z,78.65
2022-12-15T15:25:40.233Z,78.35
2022-12-15T15:28:12.006Z,78.38
2022-12-15T15:30:57.936Z,78.31
2022-12-15T15:33:26.893Z,78.50
2022-12-15T15:36:04.509Z,78.82
2022-12-15T15:38:35.042Z,78.94
2022-12-15T15:41:18.211Z,79.11
2022-12-15T15:43:47.190Z,79.19
2022-12-15T15:46:19.795Z,78.96
2022-12-15T15:48:55.314Z,78.95
2022-12-15T15:51:28.344Z,78.91
2022-12-15T15:54:00.247Z,78.80
2022-12-15T15:56:28.723Z,79.01
2022-12-15T15:58:57.881Z,79.16
2022-12-15T16:01:25.995Z,79.28
2022-12-15T16:03:54.165Z,79.29
2022-12-15T16:06:24.428Z,79.17
2022-12-15T16:08:53.975Z,79.10
2022-12-15T16:11:23.093Z,79.02
2022-12-15T16:13:51.631Z,78.80
2022-12-15T16:16:22.977Z,78.87
2022-12-15T16:18:51.279Z,79.00
2022-12-15T16:21:20.435Z,79.64
2022-12-15T16:23:49.445Z,85.23
2022-12-15T16:26:25.866Z,83.32
2022-12-15T16:28:54.271Z,80.51
2022-12-15T16:31:40.892Z,78.98
2022-12-15T16:34:09.756Z,78.33
2022-12-15T16:36:38.330Z,78.16
2022-12-15T16:39:24.287Z,78.48
2022-12-15T16:41:54.315Z,78.68
2022-12-15T16:44:23.330Z,78.84
2022-12-15T16:46:51.383Z,78.88
2022-12-15T16:49:19.566Z,78.78
2022-12-15T16:51:50.838Z,78.52
2022-12-15T16:54:30.603Z,78.38
2022-12-15T16:57:00.032Z,78.32
2022-12-15T16:59:36.087Z,78.35
2022-12-15T17:02:27.993Z,78.43
2022-12-15T17:04:56.379Z,78.66
2022-12-15T17:07:27.628Z,78.66
2022-12-15T17:09:56.433Z,78.58
2022-12-15T17:12:24.418Z,78.35
2022-12-15T17:14:52.891Z,78.17
2022-12-15T17:17:21.363Z,78.03
2022-12-15T17:20:27.459Z,78.07
2022-12-15T17:22:38.556Z,78.32
2022-12-15T17:25:16.237Z,78.37
2022-12-15T17:27:45.135Z,78.33
2022-12-15T17:30:15.659Z,78.18
2022-12-15T17:32:44.474Z,78.00
2022-12-15T17:35:12.693Z,77.92
2022-12-15T17:37:40.895Z,78.04
2022-12-15T17:40:20.793Z,78.20
2022-12-15T17:42:49.682Z,78.26
2022-12-15T17:45:24.808Z,78.32
2022-12-15T17:47:52.779Z,78.40
2022-12-15T17:50:21.210Z,78.36
2022-12-15T17:52:49.547Z,78.19
2022-12-15T17:55:19.951Z,78.21
2022-12-15T17:57:47.940Z,77.97
2022-12-15T18:00:17.579Z,78.05
2022-12-15T18:02:45.661Z,78.26
2022-12-15T18:05:14.345Z,78.41
2022-12-15T18:07:42.770Z,78.45
2022-12-15T18:10:41.032Z,78.32
2022-12-15T18:13:20.282Z,78.09
2022-12-15T18:15:49.616Z,78.13
2022-12-15T18:18:20.805Z,78.04
2022-12-15T18:20:51.350Z,78.09
2022-12-15T18:23:30.987Z,78.16
2022-12-15T18:26:02.873Z,78.28
2022-12-15T18:28:35.540Z,78.35
2022-12-15T18:31:19.707Z,78.52
2022-12-15T18:33:47.943Z,78.47
2022-12-15T18:36:16.307Z,78.34
2022-12-15T18:38:44.589Z,78.58
2022-12-15T18:41:17.859Z,79.25
2022-12-15T18:43:47.600Z,79.18
2022-12-15T18:46:17.147Z,79.02
2022-12-15T18:48:45.458Z,79.02
2022-12-15T18:51:18.012Z,78.91
2022-12-15T18:53:48.847Z,78.64
2022-12-15T18:56:19.363Z,78.47
2022-12-15T18:58:47.946Z,78.27
2022-12-15T19:01:16.511Z,78.09
2022-12-15T19:03:44.536Z,78.22
2022-12-15T19:06:34.947Z,78.14
2022-12-15T19:09:14.654Z,78.15
2022-12-15T19:12:04.799Z,78.29
2022-12-15T19:14:42.924Z,78.31
2022-12-15T19:17:32.232Z,78.21
2022-12-15T19:20:19.380Z,78.16
2022-12-15T19:22:48.795Z,78.07
2022-12-15T19:25:26.620Z,78.05
2022-12-15T19:27:59.724Z,78.10
2022-12-15T19:30:30.973Z,78.12
2022-12-15T19:32:59.260Z,78.30
2022-12-15T19:35:28.048Z,78.29
2022-12-15T19:37:58.711Z,78.37
2022-12-15T19:40:28.435Z,78.36
2022-12-15T19:42:56.761Z,78.39
2022-12-15T19:45:28.030Z,78.10
2022-12-15T19:47:56.559Z,78.12
2022-12-15T19:50:29.349Z,78.15
2022-12-15T19:53:01.084Z,78.29
2022-12-15T19:55:32.945Z,78.44
2022-12-15T19:58:20.001Z,78.64
2022-12-15T20:00:51.666Z,78.66
2022-12-15T20:03:20.729Z,78.78
2022-12-15T20:05:51.945Z,78.66
2022-12-15T20:08:23.491Z,78.55
2022-12-15T20:10:53.938Z,78.20
2022-12-15T20:13:22.558Z,77.87
2022-12-15T20:15:50.839Z,77.72
2022-12-15T20:18:19.187Z,77.77
2022-12-15T20:20:48.910Z,77.93
2022-12-15T20:23:26.283Z,77.88
2022-12-15T20:25:56.253Z,77.75
2022-12-15T20:28:28.726Z,77.69
2022-12-15T20:30:58.199Z,77.68
2022-12-15T20:33:26.191Z,77.55
2022-12-15T20:35:54.302Z,77.52
2022-12-15T20:38:32.211Z,77.55
2022-12-15T20:41:01.991Z,77.66
2022-12-15T20:43:31.795Z,77.46
2022-12-15T20:46:05.832Z,77.56
2022-12-15T20:48:36.583Z,77.58
2022-12-15T20:51:09.502Z,77.53
2022-12-15T20:53:38.954Z,77.59
2022-12-15T20:56:07.643Z,77.55
2022-12-15T20:58:39.352Z,77.42
2022-12-15T21:01:29.164Z,77.13
2022-12-15T21:03:58.744Z,76.99
2022-12-15T21:06:28.493Z,76.84
2022-12-15T21:08:56.979Z,76.93
2022-12-15T21:11:32.527Z,77.11
2022-12-15T21:14:04.456Z,77.31
2022-12-15T21:16:32.838Z,77.05
2022-12-15T21:19:19.710Z,76.87
2022-12-15T21:21:54.939Z,76.55
2022-12-15T21:24:27.264Z,76.34
2022-12-15T21:26:55.555Z,76.37
2022-12-15T21:29:26.372Z,76.46
2022-12-15T21:31:54.871Z,76.75
2022-12-15T21:34:22.830Z,76.50
2022-12-15T21:36:55.061Z,76.46
2022-12-15T21:39:34.110Z,76.35
2022-12-15T21:42:07.130Z,76.21
2022-12-15T21:44:36.499Z,76.12
2022-12-15T21:47:24.970Z,76.11
2022-12-15T21:49:52.887Z,76.17
2022-12-15T21:52:25.976Z,76.36
2022-12-15T21:54:53.864Z,76.47
2022-12-15T21:57:23.108Z,76.47
2022-12-15T21:59:51.890Z,76.43
2022-12-15T22:02:26.999Z,76.33
2022-12-15T22:04:55.617Z,76.21
2022-12-15T22:07:23.546Z,76.01
2022-12-15T22:09:51.822Z,75.94
2022-12-15T22:12:22.887Z,76.06
2022-12-15T22:14:52.101Z,76.26
2022-12-15T22:17:22.163Z,76.34
2022-12-15T22:19:50.507Z,76.12
2022-12-15T22:22:18.333Z,76.00
2022-12-15T22:24:46.313Z,75.99
2022-12-15T22:27:23.376Z,75.98
2022-12-15T22:29:52.228Z,76.23
2022-12-15T22:32:20.360Z,76.37
2022-12-15T22:34:48.366Z,76.63
2022-12-15T22:37:16.548Z,76.75
2022-12-15T22:39:44.882Z,76.71
2022-12-15T22:42:17.314Z,76.59
2022-12-15T22:44:45.569Z,76.47
2022-12-15T22:47:13.794Z,76.46
2022-12-15T22:49:42.629Z,76.60
2022-12-15T22:52:19.452Z,76.78
2022-12-15T22:54:47.998Z,76.89
2022-12-15T22:57:22.824Z,77.05
2022-12-15T23:00:03.159Z,77.28
2022-12-15T23:02:33.756Z,77.05
2022-12-15T23:05:02.373Z,77.07
2022-12-15T23:07:30.407Z,76.93
2022-12-15T23:10:16.932Z,76.97
2022-12-15T23:12:44.840Z,77.08
2022-12-15T23:15:31.640Z,77.23
2022-12-15T23:17:59.586Z,77.22
2022-12-15T23:20:27.498Z,77.29
2022-12-15T23:22:55.693Z,77.46
2022-12-15T23:25:23.616Z,77.33
2022-12-15T23:27:51.657Z,77.20
2022-12-15T23:30:20.455Z,77.17
2022-12-15T23:32:48.939Z,77.15
2022-12-15T23:35:16.839Z,77.30
2022-12-15T23:37:44.907Z,77.41
2022-12-15T23:40:20.025Z,77.50
2022-12-15T23:42:48.989Z,77.43
2022-12-15T23:45:17.064Z,77.47
2022-12-15T23:47:45.159Z,77.35
2022-12-15T23:50:13.098Z,76.98
2022-12-15T23:52:41.471Z,76.78
2022-12-15T23:55:10.250Z,76.69
2022-12-15T23:57:39.444Z,76.59
